createdAt,value
2023-02-16T00:01:49.329Z,7.65
2023-02-16T00:04:18.157Z,7.79
2023-02-16T00:06:44.593Z,7.61
2023-02-16T00:09:11.091Z,7.59
2023-02-16T00:11:56.210Z,7.55
2023-02-16T00:14:26.289Z,7.53
2023-02-16T00:16:54.955Z,7.51
2023-02-16T00:19:35.057Z,7.56
2023-02-16T00:22:02.498Z,7.45
2023-02-16T00:24:30.511Z,7.43
2023-02-16T00:26:58.065Z,7.41
2023-02-16T00:29:30.674Z,7.42
2023-02-16T00:31:58.878Z,7.39
2023-02-16T00:34:41.482Z,7.46
2023-02-16T00:37:10.655Z,7.39
2023-02-16T00:39:38.707Z,7.35
2023-02-16T00:42:12.071Z,7.36
2023-02-16T00:44:44.259Z,7.38
2023-02-16T00:47:32.320Z,7.36
2023-02-16T00:49:59.131Z,7.32
2023-02-16T00:52:36.018Z,7.56
2023-02-16T00:55:09.310Z,7.35
2023-02-16T00:57:41.477Z,7.30
2023-02-16T01:00:10.859Z,7.28
2023-02-16T01:02:37.291Z,7.22
2023-02-16T01:05:04.479Z,7.23
2023-02-16T01:07:49.770Z,7.21
2023-02-16T01:10:37.334Z,7.23
2023-02-16T01:13:04.412Z,7.22
2023-02-16T01:15:30.988Z,7.21
2023-02-16T01:17:57.612Z,7.21
2023-02-16T01:20:26.108Z,7.22
2023-02-16T01:22:52.549Z,7.16
2023-02-16T01:25:19.141Z,7.18
2023-02-16T01:27:46.437Z,7.16
2023-02-16T01:30:16.351Z,7.16
2023-02-16T01:32:42.900Z,7.13
2023-02-16T01:35:10.396Z,7.12
2023-02-16T01:37:36.912Z,7.09
2023-02-16T01:40:04.101Z,7.10
2023-02-16T01:42:41.361Z,7.13
2023-02-16T01:45:19.877Z,7.15
2023-02-16T01:48:01.766Z,7.15
2023-02-16T01:50:41.850Z,7.10
2023-02-16T01:53:37.426Z,7.14
2023-02-16T01:56:06.991Z,7.04
2023-02-16T01:58:44.478Z,7.07
2023-02-16T02:01:39.542Z,7.12
2023-02-16T02:04:44.239Z,7.10
2023-02-16T02:07:17.918Z,7.04
2023-02-16T02:09:55.727Z,6.99
2023-02-16T02:12:32.851Z,7.00
2023-02-16T02:14:59.379Z,6.93
2023-02-16T02:17:27.679Z,6.93
2023-02-16T02:19:59.844Z,6.94
2023-02-16T02:22:57.029Z,6.88
2023-02-16T02:26:11.844Z,6.96
2023-02-16T02:29:02.582Z,6.94
2023-02-16T02:32:04.703Z,6.92
2023-02-16T02:35:08.911Z,6.89
2023-02-16T02:37:56.257Z,6.86
2023-02-16T02:40:28.772Z,6.84
2023-02-16T02:43:17.737Z,6.87
2023-02-16T02:45:49.674Z,6.77
2023-02-16T02:48:16.249Z,6.75
2023-02-16T02:51:23.466Z,6.83
2023-02-16T02:54:15.231Z,6.77
2023-02-16T02:57:06.666Z,6.77
2023-02-16T02:59:56.504Z,6.78
2023-02-16T03:02:25.181Z,6.79
2023-02-16T03:04:54.017Z,6.75
2023-02-16T03:07:43.360Z,6.78
2023-02-16T03:10:28.738Z,6.74
2023-02-16T03:12:57.827Z,6.76
2023-02-16T03:15:26.199Z,6.75
2023-02-16T03:18:13.932Z,6.77
2023-02-16T03:21:02.099Z,6.77
2023-02-16T03:23:48.165Z,6.74
2023-02-16T03:26:34.346Z,6.74
2023-02-16T03:29:21.647Z,6.75
2023-02-16T03:31:49.834Z,6.74
2023-02-16T03:34:37.362Z,6.81
2023-02-16T03:37:05.283Z,6.73
2023-02-16T03:39:32.727Z,6.69
2023-02-16T03:41:59.283Z,6.70
2023-02-16T03:44:25.808Z,6.71
2023-02-16T03:46:52.391Z,6.71
2023-02-16T03:49:19.787Z,6.70
2023-02-16T03:51:47.030Z,6.69
2023-02-16T03:54:13.629Z,6.66
2023-02-16T03:56:40.201Z,6.64
2023-02-16T03:59:06.710Z,6.65
2023-02-16T04:01:33.269Z,6.61
2023-02-16T04:03:59.772Z,6.61
2023-02-16T04:06:26.468Z,6.59
2023-02-16T04:08:53.065Z,6.56
2023-02-16T04:11:38.273Z,6.54
2023-02-16T04:14:04.741Z,6.49
2023-02-16T04:16:31.234Z,6.46
2023-02-16T04:18:57.709Z,6.46
2023-02-16T04:21:24.187Z,6.43
2023-02-16T04:23:50.662Z,6.43
2023-02-16T04:26:17.121Z,6.43
2023-02-16T04:28:43.720Z,6.42
2023-02-16T04:31:10.237Z,6.41
2023-02-16T04:33:36.791Z,6.40
2023-02-16T04:36:03.348Z,6.38
2023-02-16T04:38:29.772Z,6.40
2023-02-16T04:40:56.254Z,6.39
2023-02-16T04:43:22.790Z,6.38
2023-02-16T04:45:49.291Z,6.38
2023-02-16T04:48:15.774Z,6.38
2023-02-16T04:50:42.225Z,6.37
2023-02-16T04:53:08.690Z,6.38
2023-02-16T04:55:35.157Z,6.38
2023-02-16T04:58:01.665Z,6.36
2023-02-16T05:00:28.897Z,6.37
2023-02-16T05:02:55.353Z,6.34
2023-02-16T05:05:21.850Z,6.35
2023-02-16T05:07:48.342Z,6.35
2023-02-16T05:10:14.809Z,6.34
2023-02-16T05:13:00.118Z,6.42
2023-02-16T05:15:26.547Z,6.62
2023-02-16T05:17:53.062Z,6.91
2023-02-16T05:20:19.544Z,7.24
2023-02-16T05:22:46.495Z,7.56
2023-02-16T05:25:13.414Z,7.77
2023-02-16T05:27:39.917Z,7.96
2023-02-16T05:30:07.004Z,8.10
2023-02-16T05:32:33.499Z,8.16
2023-02-16T05:35:00.156Z,8.18
2023-02-16T05:37:26.595Z,8.10
2023-02-16T05:39:53.289Z,8.02
2023-02-16T05:42:19.767Z,7.91
2023-02-16T05:44:46.194Z,7.77
2023-02-16T05:47:12.750Z,7.65
2023-02-16T05:49:39.277Z,7.51
2023-02-16T05:52:05.860Z,7.38
2023-02-16T05:54:32.387Z,7.27
2023-02-16T05:56:58.865Z,7.16
2023-02-16T05:59:25.412Z,7.08
2023-02-16T06:01:52.688Z,6.99
2023-02-16T06:04:20.534Z,6.90
2023-02-16T06:06:47.596Z,6.80
2023-02-16T06:09:14.243Z,6.75
2023-02-16T06:11:40.744Z,6.66
2023-02-16T06:14:13.502Z,6.63
2023-02-16T06:16:42.207Z,6.54
2023-02-16T06:19:09.376Z,6.46
2023-02-16T06:21:36.912Z,6.40
2023-02-16T06:24:04.043Z,6.38
2023-02-16T06:26:30.703Z,6.41
2023-02-16T06:28:57.356Z,6.54
2023-02-16T06:31:25.464Z,6.62
2023-02-16T06:33:53.026Z,6.69
2023-02-16T06:36:20.148Z,6.75
2023-02-16T06:38:47.006Z,6.77
2023-02-16T06:41:13.574Z,7.04
2023-02-16T06:43:40.076Z,6.80
2023-02-16T06:46:06.709Z,6.76
2023-02-16T06:48:33.333Z,6.71
2023-02-16T06:50:59.831Z,6.67
2023-02-16T06:53:26.367Z,6.63
2023-02-16T06:55:52.905Z,6.59
2023-02-16T06:58:19.449Z,6.57
2023-02-16T07:00:45.970Z,6.54
2023-02-16T07:03:12.656Z,6.53
2023-02-16T07:05:39.203Z,6.51
2023-02-16T07:08:05.702Z,6.50
2023-02-16T07:10:47.511Z,6.51
2023-02-16T07:13:15.905Z,6.47
2023-02-16T07:15:42.354Z,6.50
2023-02-16T07:18:08.837Z,6.46
2023-02-16T07:20:35.312Z,6.47
2023-02-16T07:23:01.802Z,6.48
2023-02-16T07:25:28.716Z,6.47
2023-02-16T07:27:55.390Z,6.49
2023-02-16T07:30:22.325Z,6.47
2023-02-16T07:32:48.843Z,6.49
2023-02-16T07:35:15.265Z,6.52
2023-02-16T07:37:41.773Z,6.53
2023-02-16T07:40:08.868Z,6.51
2023-02-16T07:42:35.360Z,6.52
2023-02-16T07:45:01.844Z,6.52
2023-02-16T07:47:28.299Z,6.52
2023-02-16T07:49:54.866Z,6.53
2023-02-16T07:52:21.354Z,6.54
2023-02-16T07:54:47.899Z,6.55
2023-02-16T07:57:14.369Z,6.54
2023-02-16T07:59:40.942Z,6.53
2023-02-16T08:02:07.573Z,6.56
2023-02-16T08:04:34.525Z,6.54
2023-02-16T08:07:01.261Z,6.57
2023-02-16T08:09:27.709Z,6.59
2023-02-16T08:11:54.285Z,6.61
2023-02-16T08:14:20.763Z,6.64
2023-02-16T08:16:48.516Z,6.62
2023-02-16T08:19:16.775Z,6.66
2023-02-16T08:21:47.375Z,6.67
2023-02-16T08:24:13.866Z,6.67
2023-02-16T08:26:43.171Z,6.71
2023-02-16T08:29:10.229Z,6.73
2023-02-16T08:31:38.426Z,6.71
2023-02-16T08:34:05.823Z,6.73
2023-02-16T08:36:34.866Z,6.74
2023-02-16T08:39:04.241Z,6.74
2023-02-16T08:41:33.633Z,6.72
2023-02-16T08:44:00.919Z,6.70
2023-02-16T08:46:29.297Z,6.74
2023-02-16T08:49:00.417Z,6.78
2023-02-16T08:51:29.196Z,6.77
2023-02-16T08:54:00.276Z,6.79
2023-02-16T08:56:29.742Z,6.76
2023-02-16T08:58:57.204Z,6.77
2023-02-16T09:01:23.912Z,6.78
2023-02-16T09:03:50.446Z,6.99
2023-02-16T09:06:21.434Z,6.82
2023-02-16T09:08:57.482Z,6.87
2023-02-16T09:11:25.597Z,6.77
2023-02-16T09:13:52.078Z,6.79
2023-02-16T09:16:22.503Z,6.84
2023-02-16T09:18:49.397Z,6.84
2023-02-16T09:21:17.708Z,7.08
2023-02-16T09:23:48.214Z,6.93
2023-02-16T09:26:19.363Z,6.99
2023-02-16T09:28:47.277Z,7.03
2023-02-16T09:31:23.739Z,7.13
2023-02-16T09:33:50.250Z,7.21
2023-02-16T09:36:17.359Z,7.24
2023-02-16T09:41:27.905Z,7.52
2023-02-16T09:44:29.755Z,7.61
2023-02-16T09:46:58.838Z,7.69
2023-02-16T09:49:37.915Z,7.75
2023-02-16T09:52:19.801Z,7.93
2023-02-16T09:54:51.534Z,7.98
2023-02-16T09:57:49.166Z,8.12
2023-02-16T10:00:51.297Z,8.24
2023-02-16T10:03:41.433Z,8.23
2023-02-16T18:39:29.445Z,11.50
2023-02-16T18:41:55.981Z,11.45
2023-02-16T18:44:22.510Z,11.44
2023-02-16T18:46:49.074Z,11.42
2023-02-16T18:49:15.594Z,11.42
2023-02-16T18:51:42.140Z,11.41
2023-02-16T18:54:08.677Z,11.42
2023-02-16T18:56:37.345Z,11.40
2023-02-16T18:59:04.403Z,11.38
2023-02-16T19:01:32.722Z,11.39
2023-02-16T19:04:00.860Z,11.36
2023-02-16T19:06:27.994Z,11.38
2023-02-16T19:08:54.691Z,11.37
2023-02-16T19:11:21.246Z,11.65
2023-02-16T19:13:48.600Z,11.39
2023-02-16T19:16:16.432Z,11.35
2023-02-16T19:18:43.227Z,11.32
2023-02-16T19:21:10.943Z,11.59
2023-02-16T19:23:37.833Z,11.35
2023-02-16T19:26:12.845Z,11.34
2023-02-16T19:28:39.988Z,11.27
2023-02-16T19:31:09.358Z,11.25
2023-02-16T19:33:35.956Z,11.24
2023-02-16T19:36:08.624Z,11.29
2023-02-16T19:38:35.926Z,11.24
2023-02-16T19:41:10.800Z,11.29
2023-02-16T19:43:37.429Z,11.23
2023-02-16T19:46:05.682Z,11.20
2023-02-16T19:48:32.455Z,11.21
2023-02-16T19:51:00.965Z,11.24
2023-02-16T19:53:28.271Z,11.22
2023-02-16T19:55:54.856Z,11.22
2023-02-16T19:58:22.710Z,11.22
2023-02-16T20:00:49.507Z,11.21
2023-02-16T20:03:16.208Z,11.51
2023-02-16T20:05:43.218Z,11.25
2023-02-16T20:08:10.296Z,11.19
2023-02-16T20:10:43.953Z,11.20
2023-02-16T20:13:11.263Z,11.16
2023-02-16T20:15:37.803Z,11.16
2023-02-16T20:18:06.005Z,11.14
2023-02-16T20:20:32.576Z,11.12
2023-02-16T20:22:59.072Z,11.14
2023-02-16T20:25:25.795Z,11.11
2023-02-16T20:27:52.564Z,11.13
2023-02-16T20:30:20.983Z,11.40
2023-02-16T20:32:48.457Z,11.15
2023-02-16T20:35:15.292Z,11.12
2023-02-16T20:37:41.899Z,11.11
2023-02-16T20:40:08.885Z,11.09
2023-02-16T20:42:35.645Z,11.09
2023-02-16T20:45:03.508Z,11.37
2023-02-16T20:47:30.071Z,11.13
2023-02-16T20:49:56.590Z,11.10
2023-02-16T20:52:23.178Z,11.06
2023-02-16T20:54:49.683Z,11.09
2023-02-16T20:57:26.429Z,11.01
2023-02-16T20:59:54.423Z,11.03
2023-02-16T21:02:20.991Z,11.02
2023-02-16T21:04:47.544Z,11.02
2023-02-16T21:07:14.136Z,11.02
2023-02-16T21:09:40.635Z,11.04
2023-02-16T21:12:07.178Z,11.02
2023-02-16T21:14:33.763Z,11.01
2023-02-16T21:17:00.698Z,11.01
2023-02-16T21:19:27.198Z,10.99
2023-02-16T21:21:53.728Z,11.00
2023-02-16T21:24:20.787Z,11.01
2023-02-16T21:26:47.427Z,11.01
2023-02-16T21:29:17.041Z,11.04
2023-02-16T21:31:43.716Z,11.02
2023-02-16T21:34:10.181Z,11.31
2023-02-16T21:36:37.732Z,11.08
2023-02-16T21:39:05.198Z,11.05
2023-02-16T21:41:31.723Z,11.05
2023-02-16T21:44:10.142Z,11.09
2023-02-16T21:46:42.247Z,11.07
2023-02-16T21:49:12.795Z,11.09
2023-02-16T21:51:41.007Z,11.07
2023-02-16T21:54:14.424Z,11.10
2023-02-16T21:56:50.235Z,11.11
2023-02-16T21:59:19.034Z,11.09
2023-02-16T22:01:48.079Z,11.10
2023-02-16T22:04:18.731Z,11.13
2023-02-16T22:06:47.402Z,11.13
2023-02-16T22:09:19.066Z,11.15
2023-02-16T22:11:46.587Z,11.15
2023-02-16T22:14:13.905Z,11.15
2023-02-16T22:16:40.941Z,11.19
2023-02-16T22:19:16.349Z,11.27
2023-02-16T22:21:44.993Z,11.25
2023-02-16T22:24:14.008Z,11.26
2023-02-16T22:26:40.854Z,11.27
2023-02-16T22:29:08.787Z,11.29
2023-02-16T22:31:36.155Z,11.31
2023-02-16T22:34:06.325Z,11.36
2023-02-16T22:36:33.410Z,11.36
2023-02-16T22:39:00.114Z,11.38
2023-02-16T22:41:27.072Z,11.68
2023-02-16T22:43:55.796Z,11.47
2023-02-16T22:46:23.910Z,11.46
2023-02-16T22:48:51.020Z,11.45
2023-02-16T22:51:19.470Z,11.47
2023-02-16T22:53:46.420Z,11.47
2023-02-16T22:56:15.908Z,11.51
2023-02-16T22:58:42.732Z,11.49
2023-02-16T23:01:17.151Z,11.55
2023-02-16T23:03:49.826Z,11.55
2023-02-16T23:06:22.814Z,11.57
2023-02-16T23:08:59.045Z,11.60
2023-02-16T23:11:26.995Z,11.54
2023-02-16T23:13:53.875Z,11.54
2023-02-16T23:16:23.261Z,11.58
2023-02-16T23:18:50.718Z,11.55
2023-02-16T23:21:24.665Z,11.61
2023-02-16T23:23:52.381Z,11.58
2023-02-16T23:26:21.076Z,11.59
2023-02-16T23:28:51.659Z,11.62
2023-02-16T23:31:18.579Z,11.59
2023-02-16T23:33:45.099Z,11.59
2023-02-16T23:36:11.765Z,11.61
2023-02-16T23:38:38.301Z,11.61
2023-02-16T23:41:09.019Z,11.64
2023-02-16T23:43:35.790Z,11.61
2023-02-16T23:46:03.405Z,11.92
2023-02-16T23:48:31.306Z,11.71
2023-02-16T23:50:58.361Z,11.68
2023-02-16T23:53:27.105Z,11.68
2023-02-16T23:56:14.514Z,11.80
2023-02-16T23:58:42.772Z,11.70
